sensor_id;sensor_type;location;lat;lon;timestamp;pressure;altitude;pressure_sealevel;temperature;humidity
40918;BME280;26644;50.248;19.032;2023-04-25T00:02:02;97022.00;;;11.63;77.88
40918;BME280;26644;50.248;19.032;2023-04-25T00:05:09;97038.22;;;11.73;77.56
40918;BME280;26644;50.248;19.032;2023-04-25T00:08:13;97024.44;;;11.65;77.86
40918;BME280;26644;50.248;19.032;2023-04-25T00:11:18;97042.88;;;11.73;78.06
40918;BME280;26644;50.248;19.032;2023-04-25T00:14:25;97044.03;;;11.72;77.92
40918;BME280;26644;50.248;19.032;2023-04-25T00:17:31;97031.06;;;11.64;78.11
40918;BME280;26644;50.248;19.032;2023-04-25T00:20:35;97037.56;;;11.68;78.56
40918;BME280;26644;50.248;19.032;2023-04-25T00:23:41;97043.53;;;11.70;78.73
40918;BME280;26644;50.248;19.032;2023-04-25T00:26:46;97036.25;;;11.65;78.90
40918;BME280;26644;50.248;19.032;2023-04-25T00:29:57;97027.34;;;11.59;79.05
40918;BME280;26644;50.248;19.032;2023-04-25T00:33:02;97044.66;;;11.69;79.51
40918;BME280;26644;50.248;19.032;2023-04-25T00:36:08;97045.81;;;11.68;79.57
40918;BME280;26644;50.248;19.032;2023-04-25T00:39:12;97039.94;;;11.60;79.73
40918;BME280;26644;50.248;19.032;2023-04-25T00:42:19;97029.91;;;11.47;80.12
40918;BME280;26644;50.248;19.032;2023-04-25T00:45:28;97042.69;;;11.52;80.28
40918;BME280;26644;50.248;19.032;2023-04-25T00:48:34;97044.44;;;11.48;80.75
40918;BME280;26644;50.248;19.032;2023-04-25T00:51:39;97026.31;;;11.38;81.25
40918;BME280;26644;50.248;19.032;2023-04-25T00:54:45;97041.88;;;11.42;81.22
40918;BME280;26644;50.248;19.032;2023-04-25T00:57:50;97040.91;;;11.47;81.42
40918;BME280;26644;50.248;19.032;2023-04-25T01:00:59;97047.19;;;11.48;81.48
40918;BME280;26644;50.248;19.032;2023-04-25T01:04:04;97034.56;;;11.38;81.21
40918;BME280;26644;50.248;19.032;2023-04-25T01:07:10;97058.66;;;11.41;80.85
40918;BME280;26644;50.248;19.032;2023-04-25T01:10:16;97047.66;;;11.32;80.57
40918;BME280;26644;50.248;19.032;2023-04-25T01:13:22;97041.16;;;11.28;80.54
40918;BME280;26644;50.248;19.032;2023-04-25T01:16:30;97051.97;;;11.24;80.51
40918;BME280;26644;50.248;19.032;2023-04-25T01:19:36;97033.53;;;11.16;80.31
40918;BME280;26644;50.248;19.032;2023-04-25T01:22:43;97054.53;;;11.21;80.30
40918;BME280;26644;50.248;19.032;2023-04-25T01:25:49;97054.88;;;11.19;80.06
40918;BME280;26644;50.248;19.032;2023-04-25T01:28:56;97041.41;;;11.09;79.93
40918;BME280;26644;50.248;19.032;2023-04-25T01:32:02;97057.28;;;11.12;80.23
40918;BME280;26644;50.248;19.032;2023-04-25T01:35:11;97044.13;;;11.00;80.57
40918;BME280;26644;50.248;19.032;2023-04-25T01:38:18;97060.63;;;11.09;80.15
40918;BME280;26644;50.248;19.032;2023-04-25T01:41:24;97045.25;;;10.99;80.09
40918;BME280;26644;50.248;19.032;2023-04-25T01:44:29;97052.06;;;11.02;79.90
40918;BME280;26644;50.248;19.032;2023-04-25T01:47:35;97059.31;;;10.98;79.92
40918;BME280;26644;50.248;19.032;2023-04-25T01:50:40;97057.69;;;10.97;79.83
40918;BME280;26644;50.248;19.032;2023-04-25T01:53:50;97048.59;;;10.87;79.48
40918;BME280;26644;50.248;19.032;2023-04-25T01:56:57;97060.88;;;10.90;79.28
40918;BME280;26644;50.248;19.032;2023-04-25T02:00:06;97057.75;;;10.83;79.19
40918;BME280;26644;50.248;19.032;2023-04-25T02:03:15;97040.38;;;10.65;79.07
40918;BME280;26644;50.248;19.032;2023-04-25T02:06:20;97062.34;;;10.65;78.24
40918;BME280;26644;50.248;19.032;2023-04-25T02:09:30;97055.03;;;10.60;78.45
40918;BME280;26644;50.248;19.032;2023-04-25T02:12:39;97049.16;;;10.53;78.00
40918;BME280;26644;50.248;19.032;2023-04-25T02:16:12;97077.97;;;10.64;78.14
40918;BME280;26644;50.248;19.032;2023-04-25T02:19:17;97062.06;;;10.52;77.64
40918;BME280;26644;50.248;19.032;2023-04-25T02:22:22;97080.97;;;10.54;77.77
40918;BME280;26644;50.248;19.032;2023-04-25T02:25:31;97060.72;;;10.41;78.17
40918;BME280;26644;50.248;19.032;2023-04-25T02:28:35;97079.78;;;10.46;78.47
40918;BME280;26644;50.248;19.032;2023-04-25T02:31:40;97074.94;;;10.43;78.42
40918;BME280;26644;50.248;19.032;2023-04-25T02:34:45;97074.22;;;10.37;78.47
40918;BME280;26644;50.248;19.032;2023-04-25T02:37:50;97074.34;;;10.32;78.28
40918;BME280;26644;50.248;19.032;2023-04-25T02:40:57;97081.25;;;10.29;78.15
40918;BME280;26644;50.248;19.032;2023-04-25T02:44:02;97077.63;;;10.20;77.26
40918;BME280;26644;50.248;19.032;2023-04-25T02:47:07;97079.31;;;10.07;77.09
40918;BME280;26644;50.248;19.032;2023-04-25T02:50:12;97087.25;;;10.09;77.42
40918;BME280;26644;50.248;19.032;2023-04-25T02:53:17;97082.25;;;10.11;77.33
40918;BME280;26644;50.248;19.032;2023-04-25T02:56:28;97080.13;;;10.08;76.95
40918;BME280;26644;50.248;19.032;2023-04-25T02:59:32;97084.59;;;10.04;77.09
40918;BME280;26644;50.248;19.032;2023-04-25T03:02:38;97077.50;;;10.03;77.10
40918;BME280;26644;50.248;19.032;2023-04-25T03:05:43;97079.94;;;10.04;77.02
40918;BME280;26644;50.248;19.032;2023-04-25T03:08:49;97088.47;;;10.03;76.85
40918;BME280;26644;50.248;19.032;2023-04-25T03:11:56;97077.91;;;9.96;76.42
40918;BME280;26644;50.248;19.032;2023-04-25T03:15:02;97081.28;;;9.93;76.20
40918;BME280;26644;50.248;19.032;2023-04-25T03:18:07;97077.84;;;9.87;76.67
40918;BME280;26644;50.248;19.032;2023-04-25T03:21:15;97081.72;;;9.86;76.30
40918;BME280;26644;50.248;19.032;2023-04-25T03:24:19;97062.66;;;9.67;75.82
40918;BME280;26644;50.248;19.032;2023-04-25T03:27:27;97064.28;;;9.68;76.08
40918;BME280;26644;50.248;19.032;2023-04-25T03:30:32;97059.91;;;9.67;75.72
40918;BME280;26644;50.248;19.032;2023-04-25T03:33:37;97081.13;;;9.75;75.95
40918;BME280;26644;50.248;19.032;2023-04-25T03:36:42;97088.72;;;9.78;75.60
40918;BME280;26644;50.248;19.032;2023-04-25T03:39:48;97089.34;;;9.75;75.65
40918;BME280;26644;50.248;19.032;2023-04-25T03:42:55;97099.00;;;9.73;75.58
40918;BME280;26644;50.248;19.032;2023-04-25T03:46:01;97094.63;;;9.72;75.91
40918;BME280;26644;50.248;19.032;2023-04-25T03:49:06;97104.38;;;9.78;75.60
40918;BME280;26644;50.248;19.032;2023-04-25T03:52:33;97101.91;;;9.76;75.14
40918;BME280;26644;50.248;19.032;2023-04-25T03:55:38;97111.97;;;9.81;75.24
40918;BME280;26644;50.248;19.032;2023-04-25T03:58:46;97113.78;;;9.86;74.90
40918;BME280;26644;50.248;19.032;2023-04-25T04:01:54;97109.72;;;9.83;74.42
40918;BME280;26644;50.248;19.032;2023-04-25T04:04:59;97112.78;;;9.82;74.54
40918;BME280;26644;50.248;19.032;2023-04-25T04:08:05;97122.94;;;9.81;74.00
40918;BME280;26644;50.248;19.032;2023-04-25T04:11:13;97120.81;;;9.78;73.84
40918;BME280;26644;50.248;19.032;2023-04-25T04:14:20;97121.63;;;9.78;73.80
40918;BME280;26644;50.248;19.032;2023-04-25T04:17:26;97122.94;;;9.81;73.69
40918;BME280;26644;50.248;19.032;2023-04-25T04:20:32;97126.47;;;9.82;74.03
40918;BME280;26644;50.248;19.032;2023-04-25T04:23:37;97129.53;;;9.80;73.11
40918;BME280;26644;50.248;19.032;2023-04-25T04:26:43;97135.31;;;9.78;72.98
40918;BME280;26644;50.248;19.032;2023-04-25T04:30:12;97136.13;;;9.79;72.58
40918;BME280;26644;50.248;19.032;2023-04-25T04:33:30;97137.25;;;9.78;72.54
40918;BME280;26644;50.248;19.032;2023-04-25T04:36:39;97129.56;;;9.66;71.61
40918;BME280;26644;50.248;19.032;2023-04-25T04:39:45;97127.63;;;9.67;71.59
40918;BME280;26644;50.248;19.032;2023-04-25T04:42:59;97122.53;;;9.60;71.42
40918;BME280;26644;50.248;19.032;2023-04-25T04:46:25;97123.88;;;9.63;71.54
40918;BME280;26644;50.248;19.032;2023-04-25T04:49:53;97129.13;;;9.73;71.50
40918;BME280;26644;50.248;19.032;2023-04-25T04:53:32;97138.16;;;9.73;71.11
40918;BME280;26644;50.248;19.032;2023-04-25T04:56:51;97136.44;;;9.77;71.04
40918;BME280;26644;50.248;19.032;2023-04-25T05:00:16;97136.63;;;9.81;71.43
40918;BME280;26644;50.248;19.032;2023-04-25T05:04:03;97124.03;;;9.80;71.01
40918;BME280;26644;50.248;19.032;2023-04-25T05:07:17;97122.63;;;9.83;70.96
40918;BME280;26644;50.248;19.032;2023-04-25T05:10:22;97131.63;;;9.97;70.98
40918;BME280;26644;50.248;19.032;2023-04-25T05:13:40;97124.41;;;10.01;70.48
40918;BME280;26644;50.248;19.032;2023-04-25T05:17:20;97134.97;;;10.08;69.90
40918;BME280;26644;50.248;19.032;2023-04-25T05:20:46;97134.22;;;10.16;70.11
40918;BME280;26644;50.248;19.032;2023-04-25T05:24:01;97134.13;;;10.21;68.29
40918;BME280;26644;50.248;19.032;2023-04-25T05:27:24;97139.19;;;10.28;69.21
40918;BME280;26644;50.248;19.032;2023-04-25T05:30:36;97132.25;;;10.31;68.85
40918;BME280;26644;50.248;19.032;2023-04-25T05:34:02;97136.56;;;10.45;67.77
40918;BME280;26644;50.248;19.032;2023-04-25T05:37:30;97130.59;;;10.43;67.47
40918;BME280;26644;50.248;19.032;2023-04-25T05:40:44;97138.88;;;10.52;66.92
40918;BME280;26644;50.248;19.032;2023-04-25T05:44:08;97135.97;;;10.49;66.99
40918;BME280;26644;50.248;19.032;2023-04-25T05:47:36;97151.81;;;10.52;65.59
40918;BME280;26644;50.248;19.032;2023-04-25T05:50:55;97147.34;;;10.56;65.81
40918;BME280;26644;50.248;19.032;2023-04-25T05:54:19;97148.19;;;10.56;64.81
40918;BME280;26644;50.248;19.032;2023-04-25T05:57:26;97123.19;;;10.44;65.43
40918;BME280;26644;50.248;19.032;2023-04-25T06:00:31;97154.59;;;10.74;65.22
40918;BME280;26644;50.248;19.032;2023-04-25T06:03:38;97141.19;;;10.73;64.57
40918;BME280;26644;50.248;19.032;2023-04-25T06:06:44;97162.47;;;10.90;63.65
40918;BME280;26644;50.248;19.032;2023-04-25T06:09:52;97152.84;;;10.78;62.49
40918;BME280;26644;50.248;19.032;2023-04-25T06:12:56;97158.22;;;10.84;62.55
40918;BME280;26644;50.248;19.032;2023-04-25T06:16:02;97157.72;;;10.82;62.45
40918;BME280;26644;50.248;19.032;2023-04-25T06:19:07;97161.28;;;10.82;62.57
40918;BME280;26644;50.248;19.032;2023-04-25T06:22:12;97156.22;;;10.75;61.49
40918;BME280;26644;50.248;19.032;2023-04-25T06:25:19;97163.78;;;10.70;61.37
40918;BME280;26644;50.248;19.032;2023-04-25T06:28:25;97127.22;;;10.47;61.62
40918;BME280;26644;50.248;19.032;2023-04-25T06:31:29;97164.66;;;10.42;60.72
40918;BME280;26644;50.248;19.032;2023-04-25T06:34:36;97157.25;;;10.43;61.09
40918;BME280;26644;50.248;19.032;2023-04-25T06:37:41;97164.00;;;10.59;61.73
40918;BME280;26644;50.248;19.032;2023-04-25T06:40:49;97169.59;;;10.68;60.87
40918;BME280;26644;50.248;19.032;2023-04-25T06:43:54;97170.88;;;10.71;62.06
40918;BME280;26644;50.248;19.032;2023-04-25T06:47:05;97153.91;;;10.69;60.61
40918;BME280;26644;50.248;19.032;2023-04-25T06:50:09;97172.19;;;10.73;60.23
40918;BME280;26644;50.248;19.032;2023-04-25T06:53:15;97170.59;;;10.72;60.01
40918;BME280;26644;50.248;19.032;2023-04-25T06:56:26;97158.41;;;10.65;60.42
40918;BME280;26644;50.248;19.032;2023-04-25T06:59:39;97164.66;;;10.79;60.68
40918;BME280;26644;50.248;19.032;2023-04-25T07:02:44;97168.41;;;10.83;60.32
40918;BME280;26644;50.248;19.032;2023-04-25T07:05:49;97166.97;;;10.86;59.77
40918;BME280;26644;50.248;19.032;2023-04-25T07:08:54;97160.34;;;10.87;59.71
40918;BME280;26644;50.248;19.032;2023-04-25T07:12:03;97161.03;;;10.92;59.95
40918;BME280;26644;50.248;19.032;2023-04-25T07:15:09;97150.25;;;10.96;59.92
40918;BME280;26644;50.248;19.032;2023-04-25T07:18:18;97165.94;;;11.04;59.25
40918;BME280;26644;50.248;19.032;2023-04-25T07:21:22;97162.63;;;11.16;59.73
40918;BME280;26644;50.248;19.032;2023-04-25T07:24:29;97163.13;;;11.18;59.88
40918;BME280;26644;50.248;19.032;2023-04-25T07:27:36;97157.13;;;11.16;58.44
40918;BME280;26644;50.248;19.032;2023-04-25T07:30:54;97167.13;;;11.12;58.12
40918;BME280;26644;50.248;19.032;2023-04-25T07:33:59;97164.06;;;11.14;58.12
40918;BME280;26644;50.248;19.032;2023-04-25T07:37:05;97163.56;;;11.11;57.88
40918;BME280;26644;50.248;19.032;2023-04-25T07:40:19;97160.69;;;11.17;58.10
40918;BME280;26644;50.248;19.032;2023-04-25T07:43:31;97167.03;;;11.26;57.17
40918;BME280;26644;50.248;19.032;2023-04-25T07:46:38;97154.72;;;11.15;57.17
40918;BME280;26644;50.248;19.032;2023-04-25T07:49:44;97178.84;;;11.26;57.54
40918;BME280;26644;50.248;19.032;2023-04-25T07:52:49;97171.59;;;11.31;56.81
40918;BME280;26644;50.248;19.032;2023-04-25T07:56:02;97164.63;;;11.24;56.73
40918;BME280;26644;50.248;19.032;2023-04-25T07:59:12;97160.44;;;11.27;56.77
40918;BME280;26644;50.248;19.032;2023-04-25T08:02:18;97153.63;;;11.24;55.59
40918;BME280;26644;50.248;19.032;2023-04-25T08:05:22;97160.25;;;11.23;56.30
40918;BME280;26644;50.248;19.032;2023-04-25T08:08:36;97172.66;;;11.52;56.43
40918;BME280;26644;50.248;19.032;2023-04-25T08:11:42;97182.78;;;11.74;55.54
40918;BME280;26644;50.248;19.032;2023-04-25T08:14:53;97170.03;;;11.87;55.17
40918;BME280;26644;50.248;19.032;2023-04-25T08:18:00;97173.53;;;12.10;54.26
40918;BME280;26644;50.248;19.032;2023-04-25T08:21:07;97164.81;;;12.26;53.53
40918;BME280;26644;50.248;19.032;2023-04-25T08:24:13;97169.41;;;12.83;52.11
40918;BME280;26644;50.248;19.032;2023-04-25T08:27:19;97162.50;;;13.33;51.72
40918;BME280;26644;50.248;19.032;2023-04-25T08:30:28;97175.84;;;14.08;50.21
40918;BME280;26644;50.248;19.032;2023-04-25T08:33:34;97171.88;;;14.69;47.18
40918;BME280;26644;50.248;19.032;2023-04-25T08:36:58;97186.25;;;15.17;44.44
40918;BME280;26644;50.248;19.032;2023-04-25T08:40:15;97176.72;;;14.93;43.75
40918;BME280;26644;50.248;19.032;2023-04-25T08:43:23;97160.13;;;14.93;44.65
40918;BME280;26644;50.248;19.032;2023-04-25T08:46:32;97180.72;;;15.17;45.79
40918;BME280;26644;50.248;19.032;2023-04-25T08:49:53;97169.72;;;15.08;43.53
40918;BME280;26644;50.248;19.032;2023-04-25T08:53:04;97157.38;;;14.93;44.17
40918;BME280;26644;50.248;19.032;2023-04-25T08:56:16;97174.44;;;14.96;42.19
40918;BME280;26644;50.248;19.032;2023-04-25T08:59:25;97161.91;;;14.56;42.79
40918;BME280;26644;50.248;19.032;2023-04-25T09:02:33;97179.13;;;14.53;42.65
40918;BME280;26644;50.248;19.032;2023-04-25T09:05:40;97177.84;;;14.71;43.30
40918;BME280;26644;50.248;19.032;2023-04-25T09:08:45;97181.63;;;14.88;43.14
40918;BME280;26644;50.248;19.032;2023-04-25T09:11:50;97168.63;;;14.88;42.42
40918;BME280;26644;50.248;19.032;2023-04-25T09:15:07;97181.63;;;14.88;42.19
40918;BME280;26644;50.248;19.032;2023-04-25T09:18:35;97178.53;;;14.68;41.89
40918;BME280;26644;50.248;19.032;2023-04-25T09:21:41;97167.75;;;14.03;42.65
40918;BME280;26644;50.248;19.032;2023-04-25T09:24:46;97171.72;;;13.85;44.65
40918;BME280;26644;50.248;19.032;2023-04-25T09:27:53;97174.13;;;13.95;44.73
40918;BME280;26644;50.248;19.032;2023-04-25T09:31:06;97163.50;;;13.76;44.74
40918;BME280;26644;50.248;19.032;2023-04-25T09:34:25;97180.00;;;13.85;45.16
40918;BME280;26644;50.248;19.032;2023-04-25T09:37:33;97180.97;;;13.89;45.06
40918;BME280;26644;50.248;19.032;2023-04-25T09:40:41;97167.66;;;13.91;44.81
40918;BME280;26644;50.248;19.032;2023-04-25T09:43:57;97169.91;;;13.89;44.10
40918;BME280;26644;50.248;19.032;2023-04-25T09:47:09;97166.56;;;13.74;44.34
40918;BME280;26644;50.248;19.032;2023-04-25T09:50:20;97183.38;;;13.90;45.18
40918;BME280;26644;50.248;19.032;2023-04-25T09:53:31;97180.75;;;14.03;45.06
40918;BME280;26644;50.248;19.032;2023-04-25T09:56:48;97185.03;;;14.21;43.35
40918;BME280;26644;50.248;19.032;2023-04-25T09:59:56;97167.31;;;14.22;42.89
40918;BME280;26644;50.248;19.032;2023-04-25T10:03:06;97182.13;;;14.48;43.61
40918;BME280;26644;50.248;19.032;2023-04-25T10:06:42;97174.72;;;14.31;42.78
40918;BME280;26644;50.248;19.032;2023-04-25T10:09:57;97170.88;;;14.23;42.70
40918;BME280;26644;50.248;19.032;2023-04-25T10:13:05;97171.81;;;14.27;42.58
40918;BME280;26644;50.248;19.032;2023-04-25T10:16:10;97166.69;;;14.47;41.90
40918;BME280;26644;50.248;19.032;2023-04-25T10:19:16;97154.50;;;14.48;40.88
40918;BME280;26644;50.248;19.032;2023-04-25T10:22:31;97159.88;;;14.44;40.80
40918;BME280;26644;50.248;19.032;2023-04-25T10:25:39;97155.31;;;14.48;41.43
40918;BME280;26644;50.248;19.032;2023-04-25T10:28:56;97164.28;;;14.45;40.28
40918;BME280;26644;50.248;19.032;2023-04-25T10:32:02;97163.69;;;14.31;39.52
40918;BME280;26644;50.248;19.032;2023-04-25T10:35:12;97147.97;;;14.01;39.42
40918;BME280;26644;50.248;19.032;2023-04-25T10:38:20;97165.13;;;14.07;40.40
40918;BME280;26644;50.248;19.032;2023-04-25T10:41:25;97153.31;;;14.06;41.03
40918;BME280;26644;50.248;19.032;2023-04-25T10:44:32;97145.53;;;14.00;41.21
40918;BME280;26644;50.248;19.032;2023-04-25T10:47:44;97153.50;;;14.01;41.66
40918;BME280;26644;50.248;19.032;2023-04-25T10:50:48;97153.34;;;13.98;40.85
40918;BME280;26644;50.248;19.032;2023-04-25T10:54:00;97163.50;;;14.06;41.42
40918;BME280;26644;50.248;19.032;2023-04-25T10:57:06;97155.91;;;14.03;41.28
40918;BME280;26644;50.248;19.032;2023-04-25T11:00:15;97140.69;;;13.97;41.65
40918;BME280;26644;50.248;19.032;2023-04-25T11:03:21;97150.06;;;14.04;41.85
40918;BME280;26644;50.248;19.032;2023-04-25T11:06:37;97160.47;;;13.99;41.66
40918;BME280;26644;50.248;19.032;2023-04-25T11:10:02;97160.19;;;13.91;41.55
40918;BME280;26644;50.248;19.032;2023-04-25T11:13:08;97156.28;;;13.92;41.40
40918;BME280;26644;50.248;19.032;2023-04-25T11:16:12;97157.72;;;13.99;41.37
40918;BME280;26644;50.248;19.032;2023-04-25T11:19:19;97152.19;;;13.99;40.78
40918;BME280;26644;50.248;19.032;2023-04-25T11:22:24;97157.53;;;14.04;40.85
40918;BME280;26644;50.248;19.032;2023-04-25T11:25:34;97162.97;;;14.13;40.45
40918;BME280;26644;50.248;19.032;2023-04-25T11:28:40;97151.59;;;14.14;40.77
40918;BME280;26644;50.248;19.032;2023-04-25T11:31:49;97166.44;;;14.31;40.72
40918;BME280;26644;50.248;19.032;2023-04-25T11:34:54;97160.97;;;14.22;40.12
40918;BME280;26644;50.248;19.032;2023-04-25T11:37:59;97169.09;;;14.18;40.18
40918;BME280;26644;50.248;19.032;2023-04-25T11:41:08;97168.31;;;14.18;40.34
40918;BME280;26644;50.248;19.032;2023-04-25T11:44:15;97165.41;;;14.14;40.63
40918;BME280;26644;50.248;19.032;2023-04-25T11:47:28;97169.19;;;14.09;40.51
40918;BME280;26644;50.248;19.032;2023-04-25T11:50:33;97159.00;;;14.01;40.84
40918;BME280;26644;50.248;19.032;2023-04-25T11:53:41;97156.28;;;13.92;40.74
40918;BME280;26644;50.248;19.032;2023-04-25T11:56:51;97166.22;;;13.85;40.47
40918;BME280;26644;50.248;19.032;2023-04-25T12:00:05;97158.97;;;13.71;41.22
40918;BME280;26644;50.248;19.032;2023-04-25T12:03:14;97172.25;;;13.78;41.18
40918;BME280;26644;50.248;19.032;2023-04-25T12:06:18;97167.44;;;13.66;41.56
40918;BME280;26644;50.248;19.032;2023-04-25T12:09:29;97171.38;;;13.56;41.42
40918;BME280;26644;50.248;19.032;2023-04-25T12:12:41;97170.25;;;13.57;41.60
40918;BME280;26644;50.248;19.032;2023-04-25T12:15:48;97158.56;;;13.52;41.94
40918;BME280;26644;50.248;19.032;2023-04-25T12:18:52;97167.00;;;13.47;42.10
40918;BME280;26644;50.248;19.032;2023-04-25T12:22:00;97153.59;;;13.36;42.06
40918;BME280;26644;50.248;19.032;2023-04-25T12:25:05;97175.84;;;13.31;42.44
40918;BME280;26644;50.248;19.032;2023-04-25T12:28:16;97169.19;;;13.32;43.34
40918;BME280;26644;50.248;19.032;2023-04-25T12:31:24;97166.56;;;13.18;43.12
40918;BME280;26644;50.248;19.032;2023-04-25T12:34:32;97166.41;;;13.15;43.10
40918;BME280;26644;50.248;19.032;2023-04-25T12:37:36;97176.94;;;13.21;43.41
40918;BME280;26644;50.248;19.032;2023-04-25T12:40:42;97175.00;;;13.13;43.22
40918;BME280;26644;50.248;19.032;2023-04-25T12:43:49;97176.97;;;13.13;43.62
40918;BME280;26644;50.248;19.032;2023-04-25T12:46:54;97153.63;;;13.01;43.69
40918;BME280;26644;50.248;19.032;2023-04-25T12:50:00;97165.63;;;13.14;43.15
40918;BME280;26644;50.248;19.032;2023-04-25T12:53:06;97174.88;;;13.27;43.57
40918;BME280;26644;50.248;19.032;2023-04-25T12:56:11;97169.81;;;13.29;43.57
40918;BME280;26644;50.248;19.032;2023-04-25T12:59:19;97156.22;;;13.24;42.80
40918;BME280;26644;50.248;19.032;2023-04-25T13:02:24;97166.72;;;13.31;42.78
40918;BME280;26644;50.248;19.032;2023-04-25T13:05:29;97167.38;;;13.36;43.42
40918;BME280;26644;50.248;19.032;2023-04-25T13:08:34;97148.09;;;13.36;43.29
40918;BME280;26644;50.248;19.032;2023-04-25T13:11:40;97166.53;;;13.44;42.51
40918;BME280;26644;50.248;19.032;2023-04-25T13:14:47;97171.06;;;13.49;42.61
40918;BME280;26644;50.248;19.032;2023-04-25T13:17:52;97155.63;;;13.57;42.47
40918;BME280;26644;50.248;19.032;2023-04-25T13:20:57;97165.84;;;13.56;42.35
40918;BME280;26644;50.248;19.032;2023-04-25T13:24:04;97151.25;;;13.56;42.50
40918;BME280;26644;50.248;19.032;2023-04-25T13:27:09;97159.47;;;13.73;42.51
40918;BME280;26644;50.248;19.032;2023-04-25T13:30:17;97152.09;;;13.86;42.51
40918;BME280;26644;50.248;19.032;2023-04-25T13:33:22;97158.69;;;13.94;41.76
40918;BME280;26644;50.248;19.032;2023-04-25T13:36:27;97158.25;;;13.92;41.44
40918;BME280;26644;50.248;19.032;2023-04-25T13:39:32;97154.81;;;13.95;41.57
40918;BME280;26644;50.248;19.032;2023-04-25T13:42:38;97145.81;;;13.77;42.44
40918;BME280;26644;50.248;19.032;2023-04-25T13:45:48;97152.94;;;13.78;41.74
40918;BME280;26644;50.248;19.032;2023-04-25T13:48:53;97161.78;;;13.92;42.24
40918;BME280;26644;50.248;19.032;2023-04-25T13:51:58;97168.28;;;13.97;41.96
40918;BME280;26644;50.248;19.032;2023-04-25T13:55:04;97158.09;;;13.88;41.25
40918;BME280;26644;50.248;19.032;2023-04-25T13:58:09;97154.56;;;13.79;41.27
40918;BME280;26644;50.248;19.032;2023-04-25T14:01:18;97163.13;;;13.86;41.73
40918;BME280;26644;50.248;19.032;2023-04-25T14:04:22;97157.84;;;13.72;41.72
40918;BME280;26644;50.248;19.032;2023-04-25T14:07:28;97160.25;;;13.74;42.01
40918;BME280;26644;50.248;19.032;2023-04-25T14:10:33;97160.88;;;13.80;41.73
40918;BME280;26644;50.248;19.032;2023-04-25T14:13:38;97158.00;;;13.76;41.37
40918;BME280;26644;50.248;19.032;2023-04-25T14:16:46;97170.75;;;13.89;41.37
40918;BME280;26644;50.248;19.032;2023-04-25T14:19:53;97159.22;;;13.87;41.70
40918;BME280;26644;50.248;19.032;2023-04-25T14:22:58;97165.66;;;14.00;42.44
40918;BME280;26644;50.248;19.032;2023-04-25T14:26:03;97164.13;;;14.11;41.60
40918;BME280;26644;50.248;19.032;2023-04-25T14:29:08;97156.50;;;14.08;41.82
40918;BME280;26644;50.248;19.032;2023-04-25T14:32:16;97160.94;;;14.31;41.91
40918;BME280;26644;50.248;19.032;2023-04-25T14:35:21;97173.56;;;14.61;41.51
40918;BME280;26644;50.248;19.032;2023-04-25T14:38:26;97175.09;;;14.71;40.71
40918;BME280;26644;50.248;19.032;2023-04-25T14:41:31;97162.84;;;14.60;40.79
40918;BME280;26644;50.248;19.032;2023-04-25T14:44:36;97167.44;;;14.77;40.82
40918;BME280;26644;50.248;19.032;2023-04-25T14:47:44;97165.63;;;14.81;40.52
40918;BME280;26644;50.248;19.032;2023-04-25T14:50:49;97159.59;;;14.79;39.92
40918;BME280;26644;50.248;19.032;2023-04-25T14:53:54;97165.06;;;14.67;39.68
40918;BME280;26644;50.248;19.032;2023-04-25T14:56:59;97173.84;;;14.69;40.06
40918;BME280;26644;50.248;19.032;2023-04-25T15:00:08;97165.75;;;14.64;39.85
40918;BME280;26644;50.248;19.032;2023-04-25T15:03:20;97168.84;;;14.62;40.41
40918;BME280;26644;50.248;19.032;2023-04-25T15:06:25;97175.66;;;14.43;40.62
40918;BME280;26644;50.248;19.032;2023-04-25T15:09:32;97180.06;;;14.36;40.66
40918;BME280;26644;50.248;19.032;2023-04-25T15:12:36;97179.13;;;14.32;41.23
40918;BME280;26644;50.248;19.032;2023-04-25T15:15:42;97174.69;;;14.09;41.07
40918;BME280;26644;50.248;19.032;2023-04-25T15:18:54;97171.84;;;13.97;41.54
40918;BME280;26644;50.248;19.032;2023-04-25T15:21:59;97176.72;;;13.91;41.57
40918;BME280;26644;50.248;19.032;2023-04-25T15:25:05;97160.75;;;13.76;42.14
40918;BME280;26644;50.248;19.032;2023-04-25T15:28:12;97165.78;;;13.74;42.01
40918;BME280;26644;50.248;19.032;2023-04-25T15:31:17;97169.84;;;13.68;42.11
40918;BME280;26644;50.248;19.032;2023-04-25T15:34:25;97187.25;;;13.59;42.52
40918;BME280;26644;50.248;19.032;2023-04-25T15:37:29;97173.19;;;13.43;42.44
40918;BME280;26644;50.248;19.032;2023-04-25T15:40:35;97189.41;;;13.45;43.08
40918;BME280;26644;50.248;19.032;2023-04-25T15:43:39;97187.66;;;13.40;42.92
40918;BME280;26644;50.248;19.032;2023-04-25T15:46:44;97182.97;;;13.32;42.61
40918;BME280;26644;50.248;19.032;2023-04-25T15:49:51;97180.22;;;13.23;43.13
40918;BME280;26644;50.248;19.032;2023-04-25T15:52:57;97177.47;;;13.23;43.04
40918;BME280;26644;50.248;19.032;2023-04-25T15:56:01;97181.00;;;13.24;43.53
40918;BME280;26644;50.248;19.032;2023-04-25T15:59:08;97180.84;;;13.20;43.90
40918;BME280;26644;50.248;19.032;2023-04-25T16:02:13;97178.09;;;13.20;43.50
40918;BME280;26644;50.248;19.032;2023-04-25T16:05:21;97182.31;;;13.18;43.20
40918;BME280;26644;50.248;19.032;2023-04-25T16:08:26;97178.75;;;13.26;43.48
40918;BME280;26644;50.248;19.032;2023-04-25T16:11:35;97160.56;;;13.16;43.77
40918;BME280;26644;50.248;19.032;2023-04-25T16:14:39;97178.44;;;13.27;43.69
40918;BME280;26644;50.248;19.032;2023-04-25T16:17:44;97182.94;;;13.15;43.41
40918;BME280;26644;50.248;19.032;2023-04-25T16:20:52;97195.78;;;13.02;43.01
40918;BME280;26644;50.248;19.032;2023-04-25T16:23:57;97187.53;;;12.93;43.06
40918;BME280;26644;50.248;19.032;2023-04-25T16:27:02;97191.88;;;13.03;42.96